Time;durP1;ratioP1;P1;durP2;ratioP2;P2;SDS_P1;SDS_P2;PMS_P1;PMS_P2;Temp;Humidity;BMP_temperature;BMP_pressure;BME280_temperature;BME280_humidity;BME280_pressure;Samples;Min_cycle;Max_cycle;Signal;HPM_P1;HPM_P2
2023/05/17 00:00:52;;;;;;;;;;;;;;;17.55;56.61;100543.00;5077055;28;1205;-55
2023/05/17 00:03:17;;;;;;;;;;;;;;;16.71;57.91;100544.50;5076087;28;1133;-55
2023/05/17 00:05:43;;;;;;;;;;;;;;;16.46;57.73;100539.09;5076779;28;1054;-55
2023/05/17 00:08:08;;;;;;;;;;;;;;;16.25;57.23;100539.16;5076964;28;1078;-55
2023/05/17 00:10:34;;;;;;;;;;;;;;;16.15;57.16;100539.16;5076320;28;1145;-55
2023/05/17 00:12:59;;;;;;;;;;;;;;;16.07;56.66;100540.53;5073922;28;1059;-55
2023/05/17 00:15:25;;;;;;;;;;;;;;;16.04;56.43;100549.31;5076769;28;1154;-55
2023/05/17 00:17:50;;;;;;;;;;;;;;;16.78;57.93;100546.97;5076211;28;1914;-55
2023/05/17 00:20:16;;;;;;;;;;;;;;;17.42;57.02;100544.47;5076989;28;1205;-55
2023/05/17 00:22:44;;;;;;;;;;;;;;;16.70;57.85;100559.34;5079112;28;1019;-55
2023/05/17 00:25:09;;;;;;;;;;;;;;;16.43;57.44;100552.28;5076328;28;1070;-55
2023/05/17 00:27:35;;;;;;;;;;;;;;;16.25;57.25;100555.59;5076543;28;1308;-55
2023/05/17 00:30:01;;;;;;;;;;;;;;;16.16;56.86;100562.75;5058523;28;1441;-55
2023/05/17 00:32:26;;;;;;;;;;;;;;;17.02;57.69;100563.63;5077674;28;1130;-55
2023/05/17 00:34:52;;;;;;;;;;;;;;;17.29;57.04;100567.91;5086054;28;1042;-56
2023/05/17 00:37:17;;;;;;;;;;;;;;;16.66;57.61;100554.69;5058062;28;1914;-56
2023/05/17 00:39:43;;;;;;;;;;;;;;;16.41;57.44;100549.00;5058540;28;1517;-55
2023/05/17 00:42:08;;;;;;;;;;;;;;;16.26;57.31;100540.81;5071431;28;1158;-55
2023/05/17 00:44:34;;;;;;;;;;;;;;;16.16;56.88;100546.28;5060310;28;1115;-55
2023/05/17 00:46:59;;;;;;;;;;;;;;;16.97;57.91;100551.84;5078174;28;1313;-55
2023/05/17 00:49:25;;;;;;;;;;;;;;;17.40;56.79;100533.78;5076676;28;1123;-55
2023/05/17 00:51:51;;;;;;;;;;;;;;;16.71;57.59;100555.50;5058427;28;1130;-56
2023/05/17 00:54:17;;;;;;;;;;;;;;;16.46;57.40;100550.09;5075833;28;1010;-56
2023/05/17 00:56:43;;;;;;;;;;;;;;;16.35;57.12;100541.03;5078293;28;1976;-56
2023/05/17 00:59:08;;;;;;;;;;;;;;;16.20;56.81;100525.44;5068418;28;1026;-56
2023/05/17 01:01:34;;;;;;;;;;;;;;;16.11;56.42;100532.59;5058392;28;1159;-56
2023/05/17 01:03:59;;;;;;;;;;;;;;;16.77;58.01;100518.69;5058228;28;1043;-56
2023/05/17 01:06:25;;;;;;;;;;;;;;;17.35;56.87;100511.81;5075760;28;1169;-56
2023/05/17 01:08:50;;;;;;;;;;;;;;;16.65;57.71;100498.97;5078175;28;1145;-56
2023/05/17 01:11:26;;;;;;;;;;;;;;;16.41;57.53;100496.00;5060842;28;1117;-56
2023/05/17 01:13:59;;;;;;;;;;;;;;;16.24;57.04;100493.59;5053709;28;1028;-56
2023/05/17 01:16:47;;;;;;;;;;;;;;;16.14;56.87;100493.63;5062136;28;1972;-56
2023/05/17 01:19:36;;;;;;;;;;;;;;;16.03;56.61;100474.47;5079997;28;1007;-56
2023/05/17 01:22:09;;;;;;;;;;;;;;;16.31;57.68;100461.19;5031668;28;1041;-56
2023/05/17 01:24:44;;;;;;;;;;;;;;;17.56;56.66;100451.19;5061177;28;1246;-56
2023/05/17 01:27:10;;;;;;;;;;;;;;;16.80;57.80;100442.34;5041952;28;1114;-57
2023/05/17 01:29:35;;;;;;;;;;;;;;;16.49;57.73;100446.03;5079460;28;1237;-56
2023/05/17 01:32:01;;;;;;;;;;;;;;;16.29;57.30;100441.47;5052860;28;1345;-57
2023/05/17 01:34:27;;;;;;;;;;;;;;;16.16;57.03;100436.56;5061514;28;969;-56
2023/05/17 01:36:52;;;;;;;;;;;;;;;16.02;56.81;100425.34;5073602;28;1910;-56
2023/05/17 01:39:18;;;;;;;;;;;;;;;17.16;57.58;100431.16;5079673;28;1059;-57
2023/05/17 01:41:45;;;;;;;;;;;;;;;17.18;57.45;100432.50;5079566;28;1039;-57
2023/05/17 01:44:12;;;;;;;;;;;;;;;16.61;57.91;100440.25;5061768;28;1349;-57
2023/05/17 01:46:38;;;;;;;;;;;;;;;16.40;57.30;100426.59;5060702;28;990;-56
2023/05/17 01:49:06;;;;;;;;;;;;;;;16.25;57.25;100415.69;5079328;28;1069;-54
2023/05/17 01:51:32;;;;;;;;;;;;;;;16.13;56.75;100399.56;5079242;28;1059;-54
2023/05/17 01:54:00;;;;;;;;;;;;;;;16.02;56.81;100385.03;5061525;28;1058;-56
2023/05/17 01:56:27;;;;;;;;;;;;;;;15.95;56.67;100375.47;5078873;28;1910;-56
2023/05/17 01:58:52;;;;;;;;;;;;;;;17.20;57.41;100366.28;5052770;28;1331;-57
2023/05/17 02:01:18;;;;;;;;;;;;;;;17.19;57.38;100354.47;5079170;28;1059;-56
2023/05/17 02:03:50;;;;;;;;;;;;;;;16.66;57.70;100354.28;5061312;28;1184;-56
2023/05/17 02:06:15;;;;;;;;;;;;;;;16.40;57.39;100357.19;5079163;28;1026;-55
2023/05/17 02:08:41;;;;;;;;;;;;;;;16.25;57.12;100358.88;5044757;28;1206;-55
2023/05/17 02:11:07;;;;;;;;;;;;;;;16.15;56.74;100358.13;5049774;28;1096;-56
2023/05/17 02:13:32;;;;;;;;;;;;;;;17.08;57.82;100386.72;5079133;28;1192;-56
2023/05/17 02:16:01;;;;;;;;;;;;;;;17.19;57.32;100397.59;5060740;28;1980;-56
2023/05/17 02:18:27;;;;;;;;;;;;;;;16.62;57.88;100389.72;5078920;28;1066;-56
2023/05/17 02:20:53;;;;;;;;;;;;;;;16.42;57.36;100380.50;5079168;28;1086;-56
2023/05/17 02:23:18;;;;;;;;;;;;;;;16.30;57.12;100382.75;5087753;28;895;-56
2023/05/17 02:25:44;;;;;;;;;;;;;;;16.18;56.94;100395.97;5078368;28;1015;-56
2023/05/17 02:28:09;;;;;;;;;;;;;;;16.06;56.89;100388.88;5060551;28;1117;-56
2023/05/17 02:30:36;;;;;;;;;;;;;;;15.96;56.61;100380.66;5078598;28;1019;-56
2023/05/17 02:33:01;;;;;;;;;;;;;;;16.93;57.53;100393.13;5060864;28;1232;-56
2023/05/17 02:35:28;;;;;;;;;;;;;;;17.51;56.58;100397.06;5081589;28;979;-55
2023/05/17 02:37:53;;;;;;;;;;;;;;;16.75;57.96;100386.34;5078299;28;1975;-56
2023/05/17 02:40:19;;;;;;;;;;;;;;;16.47;57.43;100392.56;5091738;28;1039;-56
2023/05/17 02:42:44;;;;;;;;;;;;;;;16.31;57.51;100403.56;5078522;28;1050;-56
2023/05/17 02:45:10;;;;;;;;;;;;;;;16.17;56.81;100419.00;5060296;28;1102;-56
2023/05/17 02:47:36;;;;;;;;;;;;;;;16.05;56.92;100431.09;5088905;28;964;-56
2023/05/17 02:50:01;;;;;;;;;;;;;;;16.05;56.60;100428.38;5078098;28;1153;-56
2023/05/17 02:52:28;;;;;;;;;;;;;;;17.26;57.53;100442.06;5060409;28;1263;-56
2023/05/17 02:54:53;;;;;;;;;;;;;;;17.14;57.45;100444.34;5043773;28;1131;-56
2023/05/17 02:57:19;;;;;;;;;;;;;;;16.64;57.53;100434.19;5078045;28;1893;-56
2023/05/17 02:59:44;;;;;;;;;;;;;;;16.40;57.46;100434.84;5064766;28;1427;-56
2023/05/17 03:02:11;;;;;;;;;;;;;;;16.22;57.18;100428.03;5059846;28;1399;-56
2023/05/17 03:04:36;;;;;;;;;;;;;;;16.14;56.74;100425.06;5062772;28;1204;-55
2023/05/17 03:07:02;;;;;;;;;;;;;;;16.06;56.77;100420.94;5050708;28;1281;-56
2023/05/17 03:09:31;;;;;;;;;;;;;;;17.24;57.34;100456.09;5059889;28;1308;-57
2023/05/17 03:11:57;;;;;;;;;;;;;;;17.00;57.56;100477.97;5050860;28;1147;-57
2023/05/17 03:14:26;;;;;;;;;;;;;;;16.50;57.93;100479.81;5059622;28;1118;-57
2023/05/17 03:16:53;;;;;;;;;;;;;;;16.38;57.48;100478.22;5070203;28;1982;-56
2023/05/17 03:19:19;;;;;;;;;;;;;;;16.26;56.79;100474.94;5053178;28;1881;-59
2023/05/17 03:21:45;;;;;;;;;;;;;;;16.73;58.02;100481.91;5061035;28;1303;-58
2023/05/17 03:24:11;;;;;;;;;;;;;;;17.36;56.90;100469.50;5065980;28;1303;-57
2023/05/17 03:26:38;;;;;;;;;;;;;;;16.74;57.50;100456.09;5052404;28;1226;-58
2023/05/17 03:29:05;;;;;;;;;;;;;;;16.42;57.34;100462.84;5057274;28;1277;-57
2023/05/17 03:31:31;;;;;;;;;;;;;;;16.32;56.82;100468.34;5039266;28;1230;-56
2023/05/17 03:33:57;;;;;;;;;;;;;;;16.20;56.78;100465.91;5040482;28;1424;-56
2023/05/17 03:36:22;;;;;;;;;;;;;;;16.71;57.87;100453.91;5057036;28;1910;-57
2023/05/17 03:38:48;;;;;;;;;;;;;;;17.60;56.60;100455.00;5057422;28;1230;-57
2023/05/17 03:41:14;;;;;;;;;;;;;;;16.82;57.71;100442.88;5059290;28;1221;-57
2023/05/17 03:43:40;;;;;;;;;;;;;;;16.53;57.44;100438.06;5059286;28;1363;-56
2023/05/17 03:46:07;;;;;;;;;;;;;;;16.36;56.90;100431.00;5061411;28;1960;-57
2023/05/17 03:48:33;;;;;;;;;;;;;;;16.20;56.92;100432.16;5070432;28;1189;-56
2023/05/17 03:50:58;;;;;;;;;;;;;;;16.17;56.55;100427.22;5058745;28;1074;-57
2023/05/17 03:53:24;;;;;;;;;;;;;;;16.39;57.60;100421.41;5075992;28;1281;-54
2023/05/17 03:55:49;;;;;;;;;;;;;;;17.53;56.52;100427.84;5077282;28;1062;-54
2023/05/17 03:58:17;;;;;;;;;;;;;;;16.81;57.65;100424.75;5059091;28;2044;-54
2023/05/17 04:00:42;;;;;;;;;;;;;;;16.45;57.62;100427.69;5058446;28;2078;-52
2023/05/17 04:03:13;;;;;;;;;;;;;;;16.34;57.33;100438.72;5058498;28;1075;-54
2023/05/17 04:05:40;;;;;;;;;;;;;;;16.18;57.16;100439.84;5076924;28;1047;-54
2023/05/17 04:08:06;;;;;;;;;;;;;;;16.09;56.68;100453.31;5076460;28;1137;-53
2023/05/17 04:10:32;;;;;;;;;;;;;;;16.30;57.88;100465.06;5063066;28;1166;-54
2023/05/17 04:12:57;;;;;;;;;;;;;;;17.61;56.48;100481.38;5062025;28;1133;-54
2023/05/17 04:15:24;;;;;;;;;;;;;;;16.92;57.55;100493.09;5058470;28;1726;-55
2023/05/17 04:17:50;;;;;;;;;;;;;;;16.49;57.54;100491.88;5058750;28;1909;-51
2023/05/17 04:20:15;;;;;;;;;;;;;;;16.36;57.14;100501.53;5086856;28;1194;-55
2023/05/17 04:22:41;;;;;;;;;;;;;;;16.22;57.03;100510.34;5063947;28;1880;-54
2023/05/17 04:25:09;;;;;;;;;;;;;;;16.11;56.77;100516.94;5058694;28;1110;-55
2023/05/17 04:27:35;;;;;;;;;;;;;;;16.47;57.79;100516.88;5061717;28;1368;-54
2023/05/17 04:30:04;;;;;;;;;;;;;;;17.65;56.41;100526.44;5058234;28;1406;-55
2023/05/17 04:32:29;;;;;;;;;;;;;;;16.87;57.53;100522.47;5055733;28;1132;-55
2023/05/17 04:34:56;;;;;;;;;;;;;;;16.50;57.52;100524.53;5064900;28;1335;-55
2023/05/17 04:37:22;;;;;;;;;;;;;;;16.32;57.50;100511.44;5060626;28;1982;-56
2023/05/17 04:39:52;;;;;;;;;;;;;;;16.20;56.94;100509.81;5058063;28;1388;-54
2023/05/17 04:42:18;;;;;;;;;;;;;;;16.14;56.92;100504.59;5058468;28;1274;-55
2023/05/17 04:44:49;;;;;;;;;;;;;;;17.44;56.94;100510.06;5058425;28;1170;-55
2023/05/17 04:47:14;;;;;;;;;;;;;;;16.98;57.57;100507.63;5061158;28;1351;-55
2023/05/17 04:49:40;;;;;;;;;;;;;;;16.57;57.73;100507.78;5058560;28;1517;-54
2023/05/17 04:52:06;;;;;;;;;;;;;;;16.39;57.12;100521.00;5058093;28;1206;-55
2023/05/17 04:54:32;;;;;;;;;;;;;;;16.31;57.03;100516.06;5058038;28;1889;-55
2023/05/17 04:56:58;;;;;;;;;;;;;;;16.15;56.58;100533.69;5058132;28;1898;-55
2023/05/17 04:59:49;;;;;;;;;;;;;;;16.04;56.67;100544.66;5066793;28;1405;-54
2023/05/17 05:02:15;;;;;;;;;;;;;;;17.65;54.81;100553.94;5065212;28;1087;-50
2023/05/17 05:04:40;;;;;;;;;;;;;;;16.54;55.19;100557.75;5058116;28;1098;-54
2023/05/17 05:07:07;;;;;;;;;;;;;;;16.24;53.56;100554.78;5057821;28;1134;-54
2023/05/17 05:09:33;;;;;;;;;;;;;;;16.06;52.16;100560.81;5058134;28;1317;-54
2023/05/17 05:11:59;;;;;;;;;;;;;;;15.98;51.18;100554.00;5080553;28;847;-54
2023/05/17 05:14:25;;;;;;;;;;;;;;;15.75;50.66;100541.59;5057993;28;1229;-55
2023/05/17 05:16:50;;;;;;;;;;;;;;;16.35;52.09;100533.63;5057393;28;1901;-54
2023/05/17 05:19:18;;;;;;;;;;;;;;;16.62;53.63;100539.88;5058168;28;1122;-52
2023/05/17 05:21:45;;;;;;;;;;;;;;;16.16;52.50;100540.78;5057962;28;1226;-55
2023/05/17 05:24:11;;;;;;;;;;;;;;;16.03;51.03;100545.78;5067888;28;1220;-50
2023/05/17 05:26:37;;;;;;;;;;;;;;;16.90;53.04;100538.41;5046834;28;1418;-52
2023/05/17 05:29:04;;;;;;;;;;;;;;;16.31;52.23;100529.78;5057989;28;1177;-53
2023/05/17 05:31:29;;;;;;;;;;;;;;;17.53;53.69;100534.22;5058119;28;1210;-50
2023/05/17 05:33:58;;;;;;;;;;;;;;;17.25;54.12;100528.34;5057798;28;1253;-51
2023/05/17 05:36:24;;;;;;;;;;;;;;;16.72;52.86;100523.38;5062929;28;1898;-52
2023/05/17 05:38:52;;;;;;;;;;;;;;;16.60;51.22;100526.44;5075831;28;1142;-53
2023/05/17 05:41:18;;;;;;;;;;;;;;;16.40;50.24;100530.06;5057913;28;1158;-53
2023/05/17 05:43:43;;;;;;;;;;;;;;;17.08;52.82;100534.22;5057617;28;1316;-53
2023/05/17 05:46:09;;;;;;;;;;;;;;;16.62;51.65;100529.75;5057815;28;1239;-53
2023/05/17 05:48:38;;;;;;;;;;;;;;;16.47;50.66;100532.53;5070249;28;1567;-54
2023/05/17 05:51:03;;;;;;;;;;;;;;;16.36;49.81;100524.31;5070308;28;1154;-53
2023/05/17 05:53:29;;;;;;;;;;;;;;;17.06;52.02;100528.19;5038352;28;1214;-54
2023/05/17 05:55:55;;;;;;;;;;;;;;;16.59;51.01;100533.00;5055419;28;1362;-53
2023/05/17 05:58:20;;;;;;;;;;;;;;;16.45;50.15;100537.47;5068927;28;1902;-53
2023/05/17 06:00:46;;;;;;;;;;;;;;;16.30;49.39;100536.41;5072888;28;2149;-53
2023/05/17 06:03:12;;;;;;;;;;;;;;;17.27;51.07;100537.13;5065550;28;1151;-52
2023/05/17 06:05:39;;;;;;;;;;;;;;;16.63;50.80;100533.28;5058130;28;1289;-54
2023/05/17 06:08:04;;;;;;;;;;;;;;;16.37;50.08;100531.44;5071447;28;1517;-53
2023/05/17 06:10:30;;;;;;;;;;;;;;;16.36;49.09;100549.00;5078697;28;1154;-53
2023/05/17 06:12:55;;;;;;;;;;;;;;;16.92;50.88;100542.53;5067881;28;1035;-51
2023/05/17 06:15:21;;;;;;;;;;;;;;;16.53;50.44;100545.94;5058221;28;1296;-53
2023/05/17 06:17:46;;;;;;;;;;;;;;;17.07;50.78;100544.41;5058284;28;1986;-53
2023/05/17 06:20:12;;;;;;;;;;;;;;;16.90;51.28;100557.66;5058401;28;1363;-54
2023/05/17 06:22:37;;;;;;;;;;;;;;;16.97;50.93;100558.19;5074560;28;1293;-54
2023/05/17 06:25:03;;;;;;;;;;;;;;;17.91;51.87;100559.28;5075853;28;1189;-55
2023/05/17 06:27:30;;;;;;;;;;;;;;;17.19;51.68;100557.78;5069635;28;1306;-53
2023/05/17 06:29:55;;;;;;;;;;;;;;;16.87;50.41;100561.75;5075723;28;1035;-51
2023/05/17 06:32:21;;;;;;;;;;;;;;;16.70;49.59;100567.56;5088453;28;1048;-54
2023/05/17 06:34:46;;;;;;;;;;;;;;;16.62;48.77;100564.59;5087284;28;1149;-54
2023/05/17 06:37:12;;;;;;;;;;;;;;;16.44;48.57;100558.59;5093666;28;1913;-54
2023/05/17 06:39:37;;;;;;;;;;;;;;;17.07;50.03;100560.88;5071444;28;1044;-53
2023/05/17 06:42:03;;;;;;;;;;;;;;;16.86;50.54;100565.59;5086000;28;1216;-54
2023/05/17 06:44:34;;;;;;;;;;;;;;;16.58;49.50;100556.09;5085973;28;1114;-52
2023/05/17 06:46:59;;;;;;;;;;;;;;;16.45;49.05;100562.97;5083425;28;1169;-53
2023/05/17 06:49:26;;;;;;;;;;;;;;;17.19;50.15;100559.72;5096363;28;984;-55
2023/05/17 06:51:54;;;;;;;;;;;;;;;16.70;49.84;100577.75;5083496;28;1169;-54
2023/05/17 06:54:19;;;;;;;;;;;;;;;17.14;50.21;100565.22;5077816;28;938;-52
2023/05/17 06:56:45;;;;;;;;;;;;;;;17.18;51.02;100574.56;5082330;28;1979;-52
2023/05/17 06:59:11;;;;;;;;;;;;;;;16.85;50.12;100558.47;5063411;28;1079;-54
2023/05/17 07:01:36;;;;;;;;;;;;;;;16.62;49.18;100559.94;5073255;28;1315;-54
2023/05/17 07:04:01;;;;;;;;;;;;;;;16.55;48.82;100562.97;5071397;28;1311;-55
2023/05/17 07:06:27;;;;;;;;;;;;;;;16.55;47.97;100564.88;5068745;28;1146;-49
2023/05/17 07:08:53;;;;;;;;;;;;;;;17.35;49.77;100575.03;5063671;28;1195;-53
2023/05/17 07:11:18;;;;;;;;;;;;;;;16.90;50.12;100574.13;5082349;28;835;-54
2023/05/17 07:13:44;;;;;;;;;;;;;;;16.68;49.30;100574.47;5066104;28;1007;-53
2023/05/17 07:16:09;;;;;;;;;;;;;;;16.58;48.53;100570.63;5068000;28;1960;-58
2023/05/17 07:18:35;;;;;;;;;;;;;;;16.48;48.26;100569.81;5057028;28;1316;-47
2023/05/17 07:21:00;;;;;;;;;;;;;;;16.45;47.65;100573.13;5057126;28;1250;-56
2023/05/17 07:23:26;;;;;;;;;;;;;;;17.21;48.80;100560.28;5066411;28;1154;-57
2023/05/17 07:25:51;;;;;;;;;;;;;;;16.67;49.57;100579.13;5065222;28;1087;-54
2023/05/17 07:28:17;;;;;;;;;;;;;;;16.52;48.55;100569.00;5058070;28;1285;-56
2023/05/17 07:30:42;;;;;;;;;;;;;;;17.13;49.23;100566.34;5071114;28;1047;-55
2023/05/17 07:33:08;;;;;;;;;;;;;;;17.02;50.00;100569.13;5057136;28;1301;-56
2023/05/17 07:35:33;;;;;;;;;;;;;;;16.76;48.95;100566.47;5057626;28;1285;-54
2023/05/17 07:37:59;;;;;;;;;;;;;;;16.67;49.03;100578.31;5081887;28;1913;-53
2023/05/17 07:40:24;;;;;;;;;;;;;;;17.24;50.10;100565.19;5061164;28;1198;-55
2023/05/17 07:42:50;;;;;;;;;;;;;;;16.83;49.69;100566.16;5056502;28;1316;-54
2023/05/17 07:45:15;;;;;;;;;;;;;;;16.69;48.86;100565.94;5056780;28;1284;-54
2023/05/17 07:47:41;;;;;;;;;;;;;;;16.62;47.99;100570.06;5064694;28;1050;-57
2023/05/17 07:50:07;;;;;;;;;;;;;;;16.49;48.10;100563.25;5072944;28;1135;-57
2023/05/17 07:52:32;;;;;;;;;;;;;;;17.16;48.88;100561.09;5047429;28;1410;-57
2023/05/17 07:54:58;;;;;;;;;;;;;;;17.02;49.70;100560.88;5076701;28;1090;-56
2023/05/17 07:57:23;;;;;;;;;;;;;;;16.72;49.04;100537.94;5062855;28;1915;-56
2023/05/17 07:59:49;;;;;;;;;;;;;;;16.74;48.05;100535.69;5076796;28;1066;-56
2023/05/17 08:02:14;;;;;;;;;;;;;;;16.45;47.90;100541.00;5070864;28;1106;-56
2023/05/17 08:04:40;;;;;;;;;;;;;;;16.44;47.84;100531.16;5056050;28;1380;-55
2023/05/17 08:07:06;;;;;;;;;;;;;;;16.65;48.19;100520.09;5062402;28;1372;-56
2023/05/17 08:09:31;;;;;;;;;;;;;;;16.89;49.54;100525.81;5075918;28;1098;-56
2023/05/17 08:11:57;;;;;;;;;;;;;;;16.69;48.81;100512.94;5075961;28;1103;-56
2023/05/17 08:14:23;;;;;;;;;;;;;;;16.53;48.20;100506.69;5076792;28;1099;-56
2023/05/17 08:16:50;;;;;;;;;;;;;;;17.55;49.08;100508.09;5058429;28;2008;-56
2023/05/17 08:19:16;;;;;;;;;;;;;;;16.91;49.65;100509.84;5075945;28;1042;-56
2023/05/17 08:21:42;;;;;;;;;;;;;;;16.69;49.02;100507.44;5075787;28;1054;-55
2023/05/17 08:24:07;;;;;;;;;;;;;;;16.57;48.17;100502.28;5078219;28;1031;-55
2023/05/17 08:26:33;;;;;;;;;;;;;;;16.51;48.01;100497.91;5082615;28;1129;-55
2023/05/17 08:29:00;;;;;;;;;;;;;;;17.15;49.38;100506.44;5076114;28;1141;-55
2023/05/17 08:31:25;;;;;;;;;;;;;;;16.83;48.71;100505.75;5060885;28;1402;-55
2023/05/17 08:33:51;;;;;;;;;;;;;;;18.09;49.74;100513.69;5055867;28;1284;-54
2023/05/17 08:36:16;;;;;;;;;;;;;;;17.36;50.58;100496.97;5069438;28;1917;-55
2023/05/17 08:38:43;;;;;;;;;;;;;;;16.97;50.02;100500.50;5069816;28;1079;-54
2023/05/17 08:41:08;;;;;;;;;;;;;;;16.88;48.79;100491.19;5054785;28;1273;-55
2023/05/17 08:43:34;;;;;;;;;;;;;;;16.75;48.28;100493.44;5065164;28;1147;-55
2023/05/17 08:46:00;;;;;;;;;;;;;;;16.74;47.66;100490.97;5075265;28;1248;-55
2023/05/17 08:48:26;;;;;;;;;;;;;;;16.63;47.28;100484.69;5043933;28;1281;-55
2023/05/17 08:50:53;;;;;;;;;;;;;;;16.57;47.31;100483.88;5082749;28;1177;-55
2023/05/17 08:53:18;;;;;;;;;;;;;;;16.51;46.98;100493.25;5065479;28;1040;-56
2023/05/17 08:55:46;;;;;;;;;;;;;;;16.44;46.64;100484.50;5061639;28;1277;-56
2023/05/17 08:58:11;;;;;;;;;;;;;;;17.13;48.51;100486.69;5062351;28;2035;-56
2023/05/17 09:00:37;;;;;;;;;;;;;;;16.88;49.45;100485.69;5044139;28;1174;-56
2023/05/17 09:03:02;;;;;;;;;;;;;;;16.77;48.40;100484.91;5069332;28;1259;-56
2023/05/17 09:05:28;;;;;;;;;;;;;;;16.50;48.20;100485.31;5051261;28;1286;-57
2023/05/17 09:07:53;;;;;;;;;;;;;;;17.05;48.97;100490.84;5061090;28;1035;-56
2023/05/17 09:10:19;;;;;;;;;;;;;;;16.92;49.26;100486.78;5075939;28;1118;-56
2023/05/17 09:12:44;;;;;;;;;;;;;;;16.64;48.69;100483.59;5072465;28;1191;-56
2023/05/17 09:15:12;;;;;;;;;;;;;;;16.66;47.81;100484.16;5063098;28;1245;-56
2023/05/17 09:17:38;;;;;;;;;;;;;;;16.78;48.30;100475.56;5075395;28;1902;-56
2023/05/17 09:20:03;;;;;;;;;;;;;;;16.98;49.19;100463.66;5058251;28;1139;-59
2023/05/17 09:22:29;;;;;;;;;;;;;;;16.68;48.57;100481.94;5075769;28;1134;-58
2023/05/17 09:24:54;;;;;;;;;;;;;;;16.59;48.00;100478.13;5079787;28;1078;-57
2023/05/17 09:27:20;;;;;;;;;;;;;;;16.48;47.60;100482.84;5049177;28;1134;-56
2023/05/17 09:29:46;;;;;;;;;;;;;;;16.99;48.50;100481.81;5063469;28;1090;-55
2023/05/17 09:32:11;;;;;;;;;;;;;;;16.96;48.95;100476.03;5076306;28;1070;-53
2023/05/17 09:34:39;;;;;;;;;;;;;;;16.65;48.76;100471.50;5079180;28;1205;-56
2023/05/17 09:37:05;;;;;;;;;;;;;;;16.55;48.02;100483.38;5081964;28;1918;-56
2023/05/17 09:39:31;;;;;;;;;;;;;;;17.38;48.64;100486.50;5066876;28;1094;-57
2023/05/17 09:41:56;;;;;;;;;;;;;;;16.87;48.73;100489.53;5063897;28;1123;-55
2023/05/17 09:44:22;;;;;;;;;;;;;;;16.63;48.56;100490.19;5059413;28;1376;-56
2023/05/17 09:46:48;;;;;;;;;;;;;;;16.80;49.07;100487.06;5028382;28;1564;-56
2023/05/17 09:49:14;;;;;;;;;;;;;;;16.88;49.51;100481.03;5030344;28;1337;-55
2023/05/17 09:51:43;;;;;;;;;;;;;;;16.75;48.48;100495.34;5026340;28;1320;-57
2023/05/17 09:54:11;;;;;;;;;;;;;;;16.54;48.21;100491.88;5039391;28;1327;-55
2023/05/17 09:56:37;;;;;;;;;;;;;;;16.50;47.63;100485.31;5030250;28;1907;-54
2023/05/17 09:59:03;;;;;;;;;;;;;;;17.66;48.66;100486.84;5019803;28;1281;-58
2023/05/17 10:01:28;;;;;;;;;;;;;;;17.03;49.47;100477.38;5028749;28;1386;-57
2023/05/17 10:03:54;;;;;;;;;;;;;;;16.77;48.92;100474.75;5017320;28;1357;-56
2023/05/17 10:06:23;;;;;;;;;;;;;;;16.65;48.03;100477.00;5033620;28;1214;-55
2023/05/17 10:08:55;;;;;;;;;;;;;;;16.63;47.66;100461.91;5036755;28;1288;-54
2023/05/17 10:11:21;;;;;;;;;;;;;;;16.53;47.12;100457.28;5019751;28;1383;-55
2023/05/17 10:13:53;;;;;;;;;;;;;;;17.51;48.27;100452.03;5035407;28;1632;-57
2023/05/17 10:16:19;;;;;;;;;;;;;;;16.82;49.05;100451.13;5017303;28;1906;-56
2023/05/17 10:18:45;;;;;;;;;;;;;;;16.62;48.45;100461.09;5031049;28;1158;-56
2023/05/17 10:21:11;;;;;;;;;;;;;;;16.64;47.51;100458.88;5038470;28;1098;-56
2023/05/17 10:23:37;;;;;;;;;;;;;;;17.39;48.17;100459.81;5033845;28;1316;-55
2023/05/17 10:26:03;;;;;;;;;;;;;;;17.06;49.14;100448.53;5028628;28;1037;-55
2023/05/17 10:28:28;;;;;;;;;;;;;;;16.74;48.76;100456.09;5017634;28;1288;-56
2023/05/17 10:30:54;;;;;;;;;;;;;;;16.64;48.09;100453.41;5027199;28;1056;-56
2023/05/17 10:33:19;;;;;;;;;;;;;;;17.49;48.72;100446.00;5037365;28;1411;-55
2023/05/17 10:35:45;;;;;;;;;;;;;;;17.16;49.19;100442.16;5036927;28;1154;-56
2023/05/17 10:38:10;;;;;;;;;;;;;;;16.89;48.55;100427.75;5043897;28;1913;-56
2023/05/17 10:40:36;;;;;;;;;;;;;;;16.75;47.86;100423.97;5037802;28;1070;-56
2023/05/17 10:43:02;;;;;;;;;;;;;;;16.64;47.43;100420.44;5036170;28;1099;-55
2023/05/17 10:45:27;;;;;;;;;;;;;;;17.27;48.36;100425.28;5037615;28;1063;-56
2023/05/17 10:47:53;;;;;;;;;;;;;;;17.04;48.76;100426.84;5074621;28;1099;-57
2023/05/17 10:50:22;;;;;;;;;;;;;;;16.79;48.44;100435.19;5068750;28;887;-57
2023/05/17 10:52:48;;;;;;;;;;;;;;;16.67;47.41;100438.28;5075640;28;1117;-56
2023/05/17 10:55:17;;;;;;;;;;;;;;;16.60;47.15;100435.84;5077753;28;1198;-55
2023/05/17 10:57:42;;;;;;;;;;;;;;;17.65;48.15;100440.38;5077778;28;1897;-56
2023/05/17 11:00:11;;;;;;;;;;;;;;;16.86;48.99;100441.22;5077485;28;1137;-56
2023/05/17 11:02:38;;;;;;;;;;;;;;;16.74;48.19;100441.53;5067395;28;891;-56
2023/05/17 11:05:04;;;;;;;;;;;;;;;16.61;47.47;100453.97;5057078;28;1086;-56
2023/05/17 11:07:31;;;;;;;;;;;;;;;17.75;48.11;100460.38;5074320;28;1095;-56
2023/05/17 11:10:05;;;;;;;;;;;;;;;17.03;48.95;100454.59;5059796;28;1126;-55
2023/05/17 11:12:32;;;;;;;;;;;;;;;16.84;48.20;100451.66;5066424;28;1089;-57
2023/05/17 11:14:58;;;;;;;;;;;;;;;16.81;47.93;100452.22;5067672;28;1213;-56
2023/05/17 11:17:25;;;;;;;;;;;;;;;17.23;48.65;100453.63;5077544;28;1898;-56
2023/05/17 11:19:54;;;;;;;;;;;;;;;16.87;48.19;100451.06;5077339;28;1061;-56
2023/05/17 11:22:26;;;;;;;;;;;;;;;16.74;47.77;100450.59;5077878;28;1178;-56
2023/05/17 11:24:54;;;;;;;;;;;;;;;17.60;48.40;100444.00;5077338;28;1097;-56
2023/05/17 11:27:25;;;;;;;;;;;;;;;16.96;48.76;100441.19;5080807;28;868;-56
2023/05/17 11:29:52;;;;;;;;;;;;;;;16.77;48.13;100433.56;5077657;28;1065;-55
2023/05/17 11:32:18;;;;;;;;;;;;;;;17.38;48.90;100438.97;5076753;28;1189;-56
2023/05/17 11:34:43;;;;;;;;;;;;;;;16.95;48.57;100431.28;5045661;28;1253;-55
2023/05/17 11:37:09;;;;;;;;;;;;;;;16.84;47.90;100425.00;5065633;28;1905;-56
2023/05/17 11:39:35;;;;;;;;;;;;;;;16.68;47.68;100421.53;5078684;28;867;-56
2023/05/17 11:42:01;;;;;;;;;;;;;;;16.68;47.07;100423.47;5077032;28;1107;-56
2023/05/17 11:44:29;;;;;;;;;;;;;;;16.64;46.66;100416.91;5077420;28;1061;-56
2023/05/17 11:47:04;;;;;;;;;;;;;;;17.22;48.43;100416.25;5063887;28;1170;-56
2023/05/17 11:49:31;;;;;;;;;;;;;;;16.75;48.35;100405.56;5076715;28;1236;-56
2023/05/17 11:51:57;;;;;;;;;;;;;;;16.70;47.63;100408.31;5079755;28;1224;-56
2023/05/17 11:54:23;;;;;;;;;;;;;;;16.65;47.29;100400.13;5056243;28;1154;-56
2023/05/17 11:56:49;;;;;;;;;;;;;;;16.54;47.00;100393.06;5091024;28;1901;-57
2023/05/17 11:59:18;;;;;;;;;;;;;;;17.49;48.03;100390.19;5086881;28;1200;-56
2023/05/17 12:01:48;;;;;;;;;;;;;;;17.03;48.10;100385.94;5077652;28;1081;-55
2023/05/17 12:04:14;;;;;;;;;;;;;;;16.73;47.93;100390.47;5085083;28;1022;-55
2023/05/17 12:06:39;;;;;;;;;;;;;;;16.64;47.33;100387.50;5058712;28;1218;-55
2023/05/17 12:09:09;;;;;;;;;;;;;;;16.58;46.82;100394.16;5059319;28;1169;-53
2023/05/17 12:11:35;;;;;;;;;;;;;;;16.55;46.72;100395.53;5059985;28;1253;-56
2023/05/17 12:14:00;;;;;;;;;;;;;;;16.52;46.45;100396.09;5079142;28;1154;-55
2023/05/17 12:16:26;;;;;;;;;;;;;;;17.17;48.06;100397.09;5047848;28;1981;-55
2023/05/17 12:18:51;;;;;;;;;;;;;;;16.78;48.13;100401.44;5058809;28;1270;-58
2023/05/17 12:21:17;;;;;;;;;;;;;;;17.33;48.58;100393.09;5076031;28;1118;-56
2023/05/17 12:23:44;;;;;;;;;;;;;;;17.07;48.83;100389.75;5082187;28;1043;-56
2023/05/17 12:26:11;;;;;;;;;;;;;;;16.87;47.99;100390.66;5079401;28;1109;-55
2023/05/17 12:28:37;;;;;;;;;;;;;;;16.65;47.71;100389.16;5074194;28;1142;-56
2023/05/17 12:31:03;;;;;;;;;;;;;;;16.61;46.84;100382.59;5055594;28;1308;-55
2023/05/17 12:33:29;;;;;;;;;;;;;;;17.31;48.03;100384.31;5057259;28;1068;-55
2023/05/17 12:35:55;;;;;;;;;;;;;;;17.08;49.08;100386.72;5042899;28;1298;-54
2023/05/17 12:38:20;;;;;;;;;;;;;;;16.70;48.21;100383.63;5080678;28;1971;-56
2023/05/17 12:40:46;;;;;;;;;;;;;;;16.65;47.43;100383.66;5058629;28;1134;-55
2023/05/17 12:43:11;;;;;;;;;;;;;;;16.62;47.22;100381.50;5086060;28;1045;-56